sensor_id;sensor_type;location;lat;lon;timestamp;P1;durP1;ratioP1;P2;durP2;ratioP2
14316;SDS011;7242;50.858;6.586;2023-03-14T00:02:34;8.27;;;2.20;;
14316;SDS011;7242;50.858;6.586;2023-03-14T00:05:35;7.33;;;1.80;;
14316;SDS011;7242;50.858;6.586;2023-03-14T00:08:36;6.33;;;1.60;;
14316;SDS011;7242;50.858;6.586;2023-03-14T00:11:37;5.37;;;1.77;;
14316;SDS011;7242;50.858;6.586;2023-03-14T00:14:38;4.73;;;1.50;;
14316;SDS011;7242;50.858;6.586;2023-03-14T00:17:39;4.80;;;1.83;;
14316;SDS011;7242;50.858;6.586;2023-03-14T00:20:40;4.53;;;1.40;;
14316;SDS011;7242;50.858;6.586;2023-03-14T00:23:41;4.70;;;1.50;;
14316;SDS011;7242;50.858;6.586;2023-03-14T00:27:00;6.23;;;1.80;;
14316;SDS011;7242;50.858;6.586;2023-03-14T00:30:01;3.63;;;1.50;;
14316;SDS011;7242;50.858;6.586;2023-03-14T00:33:02;4.10;;;1.40;;
14316;SDS011;7242;50.858;6.586;2023-03-14T00:36:04;5.70;;;1.80;;
14316;SDS011;7242;50.858;6.586;2023-03-14T00:39:08;5.93;;;1.60;;
14316;SDS011;7242;50.858;6.586;2023-03-14T00:42:09;7.13;;;1.77;;
14316;SDS011;7242;50.858;6.586;2023-03-14T00:45:11;7.77;;;2.00;;
14316;SDS011;7242;50.858;6.586;2023-03-14T00:48:11;5.13;;;1.50;;
14316;SDS011;7242;50.858;6.586;2023-03-14T00:51:13;4.73;;;1.93;;
14316;SDS011;7242;50.858;6.586;2023-03-14T00:54:18;7.47;;;1.80;;
14316;SDS011;7242;50.858;6.586;2023-03-14T00:57:19;6.07;;;2.10;;
14316;SDS011;7242;50.858;6.586;2023-03-14T01:00:20;7.67;;;1.93;;
14316;SDS011;7242;50.858;6.586;2023-03-14T01:03:21;8.20;;;2.17;;
14316;SDS011;7242;50.858;6.586;2023-03-14T01:06:25;7.07;;;1.63;;
14316;SDS011;7242;50.858;6.586;2023-03-14T01:09:27;3.23;;;1.10;;
14316;SDS011;7242;50.858;6.586;2023-03-14T01:12:28;3.70;;;1.20;;
14316;SDS011;7242;50.858;6.586;2023-03-14T01:15:28;2.57;;;1.03;;
14316;SDS011;7242;50.858;6.586;2023-03-14T01:18:30;3.07;;;1.17;;
14316;SDS011;7242;50.858;6.586;2023-03-14T01:21:32;2.97;;;1.00;;
14316;SDS011;7242;50.858;6.586;2023-03-14T01:24:36;2.17;;;0.93;;
14316;SDS011;7242;50.858;6.586;2023-03-14T01:27:37;5.07;;;1.13;;
14316;SDS011;7242;50.858;6.586;2023-03-14T01:30:38;3.83;;;1.13;;
14316;SDS011;7242;50.858;6.586;2023-03-14T01:33:39;3.03;;;0.80;;
14316;SDS011;7242;50.858;6.586;2023-03-14T01:36:42;2.63;;;0.90;;
14316;SDS011;7242;50.858;6.586;2023-03-14T01:39:43;2.50;;;0.80;;
14316;SDS011;7242;50.858;6.586;2023-03-14T01:42:45;4.23;;;1.13;;
14316;SDS011;7242;50.858;6.586;2023-03-14T01:55:42;2.80;;;1.00;;
14316;SDS011;7242;50.858;6.586;2023-03-14T01:58:44;2.90;;;1.17;;
14316;SDS011;7242;50.858;6.586;2023-03-14T02:01:47;2.90;;;1.00;;
14316;SDS011;7242;50.858;6.586;2023-03-14T02:04:51;5.20;;;1.20;;
14316;SDS011;7242;50.858;6.586;2023-03-14T02:07:57;5.20;;;1.30;;
14316;SDS011;7242;50.858;6.586;2023-03-14T02:11:07;4.33;;;1.20;;
14316;SDS011;7242;50.858;6.586;2023-03-14T02:14:28;2.40;;;1.00;;
14316;SDS011;7242;50.858;6.586;2023-03-14T02:17:57;2.43;;;0.87;;
14316;SDS011;7242;50.858;6.586;2023-03-14T02:21:23;2.70;;;1.00;;
14316;SDS011;7242;50.858;6.586;2023-03-14T02:25:24;2.17;;;1.00;;
14316;SDS011;7242;50.858;6.586;2023-03-14T02:28:32;3.90;;;0.90;;
14316;SDS011;7242;50.858;6.586;2023-03-14T02:31:35;3.80;;;1.10;;
14316;SDS011;7242;50.858;6.586;2023-03-14T02:34:36;5.57;;;1.33;;
14316;SDS011;7242;50.858;6.586;2023-03-14T02:37:39;4.23;;;1.30;;
14316;SDS011;7242;50.858;6.586;2023-03-14T02:40:49;2.80;;;1.03;;
14316;SDS011;7242;50.858;6.586;2023-03-14T02:43:50;4.40;;;1.40;;
14316;SDS011;7242;50.858;6.586;2023-03-14T02:46:51;6.27;;;1.60;;
14316;SDS011;7242;50.858;6.586;2023-03-14T02:49:53;4.07;;;1.20;;
14316;SDS011;7242;50.858;6.586;2023-03-14T02:53:10;5.63;;;1.43;;
14316;SDS011;7242;50.858;6.586;2023-03-14T02:56:14;3.23;;;1.20;;
14316;SDS011;7242;50.858;6.586;2023-03-14T02:59:15;5.53;;;1.53;;
14316;SDS011;7242;50.858;6.586;2023-03-14T03:02:22;5.23;;;1.30;;
14316;SDS011;7242;50.858;6.586;2023-03-14T03:05:23;5.67;;;1.50;;
14316;SDS011;7242;50.858;6.586;2023-03-14T03:08:24;6.30;;;1.57;;
14316;SDS011;7242;50.858;6.586;2023-03-14T03:11:27;7.23;;;1.60;;
14316;SDS011;7242;50.858;6.586;2023-03-14T03:14:29;5.70;;;1.47;;
14316;SDS011;7242;50.858;6.586;2023-03-14T03:17:35;7.37;;;1.47;;
14316;SDS011;7242;50.858;6.586;2023-03-14T03:20:36;5.73;;;1.93;;
14316;SDS011;7242;50.858;6.586;2023-03-14T03:23:37;7.20;;;2.27;;
14316;SDS011;7242;50.858;6.586;2023-03-14T03:26:39;5.90;;;1.93;;
14316;SDS011;7242;50.858;6.586;2023-03-14T03:29:43;4.50;;;1.50;;
14316;SDS011;7242;50.858;6.586;2023-03-14T03:32:44;4.37;;;1.70;;
14316;SDS011;7242;50.858;6.586;2023-03-14T03:35:47;5.27;;;1.40;;
14316;SDS011;7242;50.858;6.586;2023-03-14T03:38:53;3.00;;;1.20;;
14316;SDS011;7242;50.858;6.586;2023-03-14T03:41:54;4.60;;;1.30;;
14316;SDS011;7242;50.858;6.586;2023-03-14T03:44:55;2.30;;;1.10;;
14316;SDS011;7242;50.858;6.586;2023-03-14T03:47:57;3.20;;;1.07;;
14316;SDS011;7242;50.858;6.586;2023-03-14T03:50:58;4.37;;;1.20;;
14316;SDS011;7242;50.858;6.586;2023-03-14T03:53:59;3.27;;;1.30;;
14316;SDS011;7242;50.858;6.586;2023-03-14T03:57:04;2.50;;;1.10;;
14316;SDS011;7242;50.858;6.586;2023-03-14T04:00:05;2.20;;;1.07;;
14316;SDS011;7242;50.858;6.586;2023-03-14T04:03:14;2.80;;;1.00;;
14316;SDS011;7242;50.858;6.586;2023-03-14T04:06:15;2.23;;;0.90;;
14316;SDS011;7242;50.858;6.586;2023-03-14T04:09:19;2.10;;;1.10;;
14316;SDS011;7242;50.858;6.586;2023-03-14T04:12:24;2.23;;;0.60;;
14316;SDS011;7242;50.858;6.586;2023-03-14T04:15:36;1.57;;;0.53;;
14316;SDS011;7242;50.858;6.586;2023-03-14T04:18:44;1.63;;;0.60;;
14316;SDS011;7242;50.858;6.586;2023-03-14T04:21:45;1.03;;;0.60;;
14316;SDS011;7242;50.858;6.586;2023-03-14T04:24:47;1.10;;;0.63;;
14316;SDS011;7242;50.858;6.586;2023-03-14T04:27:48;1.10;;;0.57;;
14316;SDS011;7242;50.858;6.586;2023-03-14T04:30:54;1.13;;;0.60;;
14316;SDS011;7242;50.858;6.586;2023-03-14T04:33:57;1.53;;;0.60;;
14316;SDS011;7242;50.858;6.586;2023-03-14T04:37:05;1.07;;;0.60;;
14316;SDS011;7242;50.858;6.586;2023-03-14T04:40:14;1.43;;;0.70;;
14316;SDS011;7242;50.858;6.586;2023-03-14T04:43:15;2.20;;;0.53;;
14316;SDS011;7242;50.858;6.586;2023-03-14T04:46:23;1.23;;;0.50;;
14316;SDS011;7242;50.858;6.586;2023-03-14T04:49:24;0.83;;;0.40;;
14316;SDS011;7242;50.858;6.586;2023-03-14T04:52:26;1.63;;;0.60;;
14316;SDS011;7242;50.858;6.586;2023-03-14T04:55:27;1.70;;;0.50;;
14316;SDS011;7242;50.858;6.586;2023-03-14T04:58:29;0.93;;;0.50;;
14316;SDS011;7242;50.858;6.586;2023-03-14T05:01:32;0.60;;;0.40;;
14316;SDS011;7242;50.858;6.586;2023-03-14T05:04:53;1.00;;;0.50;;
14316;SDS011;7242;50.858;6.586;2023-03-14T05:08:09;0.63;;;0.37;;
14316;SDS011;7242;50.858;6.586;2023-03-14T05:11:11;0.53;;;0.40;;
14316;SDS011;7242;50.858;6.586;2023-03-14T05:14:31;0.60;;;0.47;;
14316;SDS011;7242;50.858;6.586;2023-03-14T05:17:55;0.40;;;0.40;;
14316;SDS011;7242;50.858;6.586;2023-03-14T05:21:14;0.40;;;0.30;;
14316;SDS011;7242;50.858;6.586;2023-03-14T05:24:34;0.40;;;0.40;;
14316;SDS011;7242;50.858;6.586;2023-03-14T05:28:10;0.30;;;0.30;;
14316;SDS011;7242;50.858;6.586;2023-03-14T05:31:30;0.40;;;0.40;;
14316;SDS011;7242;50.858;6.586;2023-03-14T05:34:49;0.30;;;0.30;;
14316;SDS011;7242;50.858;6.586;2023-03-14T05:38:08;0.43;;;0.40;;
14316;SDS011;7242;50.858;6.586;2023-03-14T05:41:31;0.70;;;0.40;;
14316;SDS011;7242;50.858;6.586;2023-03-14T05:44:57;0.40;;;0.40;;
14316;SDS011;7242;50.858;6.586;2023-03-14T05:48:14;0.30;;;0.30;;
14316;SDS011;7242;50.858;6.586;2023-03-14T05:51:35;1.03;;;0.50;;
14316;SDS011;7242;50.858;6.586;2023-03-14T05:54:54;0.63;;;0.60;;
14316;SDS011;7242;50.858;6.586;2023-03-14T05:58:31;0.70;;;0.60;;
14316;SDS011;7242;50.858;6.586;2023-03-14T06:01:53;1.33;;;0.50;;
14316;SDS011;7242;50.858;6.586;2023-03-14T06:04:58;0.30;;;0.30;;
14316;SDS011;7242;50.858;6.586;2023-03-14T06:07:58;0.30;;;0.30;;
14316;SDS011;7242;50.858;6.586;2023-03-14T06:11:02;0.57;;;0.40;;
14316;SDS011;7242;50.858;6.586;2023-03-14T06:14:04;0.47;;;0.40;;
14316;SDS011;7242;50.858;6.586;2023-03-14T06:17:06;0.30;;;0.30;;
14316;SDS011;7242;50.858;6.586;2023-03-14T06:20:14;1.53;;;0.30;;
14316;SDS011;7242;50.858;6.586;2023-03-14T06:23:15;0.60;;;0.40;;
14316;SDS011;7242;50.858;6.586;2023-03-14T06:26:16;0.40;;;0.40;;
14316;SDS011;7242;50.858;6.586;2023-03-14T06:29:17;0.40;;;0.40;;
14316;SDS011;7242;50.858;6.586;2023-03-14T06:32:18;0.50;;;0.40;;
14316;SDS011;7242;50.858;6.586;2023-03-14T06:35:26;0.83;;;0.40;;
14316;SDS011;7242;50.858;6.586;2023-03-14T06:38:28;0.30;;;0.30;;
14316;SDS011;7242;50.858;6.586;2023-03-14T06:41:30;0.37;;;0.37;;
14316;SDS011;7242;50.858;6.586;2023-03-14T06:44:34;0.37;;;0.30;;
14316;SDS011;7242;50.858;6.586;2023-03-14T06:47:35;0.30;;;0.30;;
14316;SDS011;7242;50.858;6.586;2023-03-14T06:50:36;0.40;;;0.40;;
14316;SDS011;7242;50.858;6.586;2023-03-14T06:53:37;0.33;;;0.30;;
14316;SDS011;7242;50.858;6.586;2023-03-14T06:56:39;0.40;;;0.40;;
14316;SDS011;7242;50.858;6.586;2023-03-14T06:59:40;0.80;;;0.47;;
14316;SDS011;7242;50.858;6.586;2023-03-14T07:02:41;0.47;;;0.43;;
14316;SDS011;7242;50.858;6.586;2023-03-14T07:05:48;0.40;;;0.40;;
14316;SDS011;7242;50.858;6.586;2023-03-14T07:08:49;0.40;;;0.40;;
14316;SDS011;7242;50.858;6.586;2023-03-14T07:11:51;1.03;;;0.30;;
14316;SDS011;7242;50.858;6.586;2023-03-14T07:14:53;0.30;;;0.30;;
14316;SDS011;7242;50.858;6.586;2023-03-14T07:17:55;0.30;;;0.30;;
14316;SDS011;7242;50.858;6.586;2023-03-14T07:20:57;0.20;;;0.20;;
14316;SDS011;7242;50.858;6.586;2023-03-14T07:23:58;0.30;;;0.20;;
14316;SDS011;7242;50.858;6.586;2023-03-14T07:26:59;0.30;;;0.30;;
14316;SDS011;7242;50.858;6.586;2023-03-14T07:30:00;0.60;;;0.30;;
14316;SDS011;7242;50.858;6.586;2023-03-14T07:33:01;0.30;;;0.30;;
14316;SDS011;7242;50.858;6.586;2023-03-14T07:36:03;0.30;;;0.30;;
14316;SDS011;7242;50.858;6.586;2023-03-14T07:39:04;0.60;;;0.30;;
14316;SDS011;7242;50.858;6.586;2023-03-14T07:42:11;0.30;;;0.30;;
14316;SDS011;7242;50.858;6.586;2023-03-14T07:45:27;0.87;;;0.30;;
14316;SDS011;7242;50.858;6.586;2023-03-14T07:48:28;0.50;;;0.40;;
14316;SDS011;7242;50.858;6.586;2023-03-14T07:51:29;0.50;;;0.40;;
14316;SDS011;7242;50.858;6.586;2023-03-14T07:54:29;0.73;;;0.30;;
14316;SDS011;7242;50.858;6.586;2023-03-14T07:57:30;0.30;;;0.30;;
14316;SDS011;7242;50.858;6.586;2023-03-14T08:00:31;0.40;;;0.40;;
14316;SDS011;7242;50.858;6.586;2023-03-14T08:03:32;0.50;;;0.40;;
14316;SDS011;7242;50.858;6.586;2023-03-14T08:06:34;0.50;;;0.40;;
14316;SDS011;7242;50.858;6.586;2023-03-14T08:09:35;0.40;;;0.40;;
14316;SDS011;7242;50.858;6.586;2023-03-14T08:12:36;0.50;;;0.40;;
14316;SDS011;7242;50.858;6.586;2023-03-14T08:15:38;1.90;;;0.50;;
14316;SDS011;7242;50.858;6.586;2023-03-14T08:18:38;0.40;;;0.40;;
14316;SDS011;7242;50.858;6.586;2023-03-14T08:21:39;0.53;;;0.40;;
14316;SDS011;7242;50.858;6.586;2023-03-14T08:24:39;0.50;;;0.50;;
14316;SDS011;7242;50.858;6.586;2023-03-14T08:27:41;0.90;;;0.50;;
14316;SDS011;7242;50.858;6.586;2023-03-14T08:30:42;1.13;;;0.50;;
14316;SDS011;7242;50.858;6.586;2023-03-14T08:33:43;0.53;;;0.50;;
14316;SDS011;7242;50.858;6.586;2023-03-14T08:36:44;0.43;;;0.43;;
14316;SDS011;7242;50.858;6.586;2023-03-14T08:39:45;0.77;;;0.57;;
14316;SDS011;7242;50.858;6.586;2023-03-14T08:42:46;0.60;;;0.60;;
14316;SDS011;7242;50.858;6.586;2023-03-14T08:45:47;0.70;;;0.60;;
14316;SDS011;7242;50.858;6.586;2023-03-14T08:48:48;1.50;;;0.60;;
14316;SDS011;7242;50.858;6.586;2023-03-14T08:51:49;0.60;;;0.40;;
14316;SDS011;7242;50.858;6.586;2023-03-14T08:54:50;0.63;;;0.50;;
14316;SDS011;7242;50.858;6.586;2023-03-14T08:57:50;0.60;;;0.50;;
14316;SDS011;7242;50.858;6.586;2023-03-14T09:00:51;1.03;;;0.60;;
14316;SDS011;7242;50.858;6.586;2023-03-14T09:03:52;1.40;;;0.60;;
14316;SDS011;7242;50.858;6.586;2023-03-14T09:06:53;0.40;;;0.40;;
14316;SDS011;7242;50.858;6.586;2023-03-14T09:09:54;1.07;;;0.50;;
14316;SDS011;7242;50.858;6.586;2023-03-14T09:12:55;0.50;;;0.50;;
14316;SDS011;7242;50.858;6.586;2023-03-14T09:15:58;0.93;;;0.50;;
14316;SDS011;7242;50.858;6.586;2023-03-14T09:18:58;2.00;;;0.80;;
14316;SDS011;7242;50.858;6.586;2023-03-14T09:21:59;1.43;;;0.70;;
14316;SDS011;7242;50.858;6.586;2023-03-14T09:25:01;2.10;;;0.60;;
14316;SDS011;7242;50.858;6.586;2023-03-14T09:28:05;1.27;;;1.00;;
14316;SDS011;7242;50.858;6.586;2023-03-14T09:31:07;1.00;;;0.90;;
14316;SDS011;7242;50.858;6.586;2023-03-14T09:34:09;1.67;;;1.30;;
14316;SDS011;7242;50.858;6.586;2023-03-14T09:37:10;1.27;;;1.20;;
14316;SDS011;7242;50.858;6.586;2023-03-14T09:40:15;1.30;;;1.20;;
14316;SDS011;7242;50.858;6.586;2023-03-14T09:43:17;1.33;;;1.10;;
14316;SDS011;7242;50.858;6.586;2023-03-14T09:46:18;0.80;;;0.80;;
14316;SDS011;7242;50.858;6.586;2023-03-14T09:49:26;1.50;;;0.70;;
14316;SDS011;7242;50.858;6.586;2023-03-14T09:55:31;0.80;;;0.70;;
14316;SDS011;7242;50.858;6.586;2023-03-14T09:58:34;1.20;;;1.10;;
14316;SDS011;7242;50.858;6.586;2023-03-14T10:01:36;1.00;;;1.00;;
14316;SDS011;7242;50.858;6.586;2023-03-14T10:04:38;1.37;;;1.00;;
14316;SDS011;7242;50.858;6.586;2023-03-14T10:07:41;1.40;;;1.10;;
14316;SDS011;7242;50.858;6.586;2023-03-14T10:10:42;0.80;;;0.80;;
14316;SDS011;7242;50.858;6.586;2023-03-14T10:13:47;1.33;;;1.10;;
14316;SDS011;7242;50.858;6.586;2023-03-14T10:16:49;1.33;;;0.80;;
14316;SDS011;7242;50.858;6.586;2023-03-14T10:19:55;1.43;;;0.90;;
14316;SDS011;7242;50.858;6.586;2023-03-14T10:22:57;1.33;;;0.90;;
14316;SDS011;7242;50.858;6.586;2023-03-14T10:26:23;0.57;;;0.50;;
14316;SDS011;7242;50.858;6.586;2023-03-14T10:29:26;1.53;;;1.03;;
14316;SDS011;7242;50.858;6.586;2023-03-14T10:32:30;0.60;;;0.60;;
14316;SDS011;7242;50.858;6.586;2023-03-14T10:35:34;0.70;;;0.57;;
14316;SDS011;7242;50.858;6.586;2023-03-14T10:38:36;0.77;;;0.70;;
14316;SDS011;7242;50.858;6.586;2023-03-14T10:41:37;1.60;;;0.80;;
14316;SDS011;7242;50.858;6.586;2023-03-14T10:44:37;2.77;;;0.70;;
14316;SDS011;7242;50.858;6.586;2023-03-14T10:47:46;1.23;;;0.60;;
14316;SDS011;7242;50.858;6.586;2023-03-14T10:50:53;1.30;;;0.80;;
14316;SDS011;7242;50.858;6.586;2023-03-14T10:54:00;0.80;;;0.60;;
14316;SDS011;7242;50.858;6.586;2023-03-14T10:57:04;0.67;;;0.60;;
14316;SDS011;7242;50.858;6.586;2023-03-14T11:00:09;1.37;;;0.63;;
14316;SDS011;7242;50.858;6.586;2023-03-14T11:03:17;1.57;;;0.70;;
14316;SDS011;7242;50.858;6.586;2023-03-14T11:06:26;1.97;;;0.60;;
14316;SDS011;7242;50.858;6.586;2023-03-14T11:12:54;0.87;;;0.63;;
14316;SDS011;7242;50.858;6.586;2023-03-14T11:16:06;2.80;;;0.70;;
14316;SDS011;7242;50.858;6.586;2023-03-14T11:22:59;2.27;;;1.20;;
14316;SDS011;7242;50.858;6.586;2023-03-14T11:35:39;4.20;;;1.30;;
14316;SDS011;7242;50.858;6.586;2023-03-14T11:38:47;2.83;;;1.30;;
14316;SDS011;7242;50.858;6.586;2023-03-14T11:41:51;1.40;;;1.07;;
14316;SDS011;7242;50.858;6.586;2023-03-14T11:44:54;3.10;;;1.30;;
14316;SDS011;7242;50.858;6.586;2023-03-14T11:48:06;1.33;;;0.47;;
14316;SDS011;7242;50.858;6.586;2023-03-14T11:51:35;0.40;;;0.40;;
14316;SDS011;7242;50.858;6.586;2023-03-14T11:57:39;0.73;;;0.40;;
14316;SDS011;7242;50.858;6.586;2023-03-14T12:00:40;0.60;;;0.50;;
14316;SDS011;7242;50.858;6.586;2023-03-14T12:03:49;2.60;;;0.60;;
14316;SDS011;7242;50.858;6.586;2023-03-14T12:06:56;0.87;;;0.50;;
14316;SDS011;7242;50.858;6.586;2023-03-14T12:10:02;1.23;;;0.60;;
14316;SDS011;7242;50.858;6.586;2023-03-14T12:13:03;1.17;;;0.60;;
14316;SDS011;7242;50.858;6.586;2023-03-14T12:16:04;1.63;;;0.90;;
14316;SDS011;7242;50.858;6.586;2023-03-14T12:22:28;2.03;;;0.80;;
14316;SDS011;7242;50.858;6.586;2023-03-14T12:25:32;2.70;;;1.00;;
14316;SDS011;7242;50.858;6.586;2023-03-14T12:28:33;1.53;;;0.90;;
14316;SDS011;7242;50.858;6.586;2023-03-14T12:31:41;2.03;;;0.80;;
14316;SDS011;7242;50.858;6.586;2023-03-14T12:34:44;2.27;;;0.97;;
14316;SDS011;7242;50.858;6.586;2023-03-14T12:37:45;1.73;;;0.90;;
14316;SDS011;7242;50.858;6.586;2023-03-14T12:43:53;3.03;;;1.00;;
14316;SDS011;7242;50.858;6.586;2023-03-14T12:46:57;5.87;;;1.20;;
14316;SDS011;7242;50.858;6.586;2023-03-14T12:50:00;3.27;;;1.10;;
14316;SDS011;7242;50.858;6.586;2023-03-14T12:59:31;2.33;;;1.10;;
14316;SDS011;7242;50.858;6.586;2023-03-14T13:02:40;6.60;;;1.03;;
14316;SDS011;7242;50.858;6.586;2023-03-14T13:05:55;6.10;;;1.30;;
14316;SDS011;7242;50.858;6.586;2023-03-14T13:09:06;6.27;;;1.37;;
14316;SDS011;7242;50.858;6.586;2023-03-14T13:12:31;3.77;;;1.40;;
14316;SDS011;7242;50.858;6.586;2023-03-14T13:15:39;4.73;;;1.10;;
14316;SDS011;7242;50.858;6.586;2023-03-14T13:18:43;4.73;;;1.40;;
14316;SDS011;7242;50.858;6.586;2023-03-14T13:21:45;3.37;;;1.30;;
14316;SDS011;7242;50.858;6.586;2023-03-14T13:24:46;3.00;;;1.33;;
14316;SDS011;7242;50.858;6.586;2023-03-14T13:27:47;7.27;;;1.70;;
14316;SDS011;7242;50.858;6.586;2023-03-14T13:30:49;6.07;;;1.67;;
14316;SDS011;7242;50.858;6.586;2023-03-14T13:34:06;7.30;;;1.67;;
14316;SDS011;7242;50.858;6.586;2023-03-14T13:37:16;4.30;;;1.50;;
14316;SDS011;7242;50.858;6.586;2023-03-14T13:40:21;4.70;;;1.53;;
14316;SDS011;7242;50.858;6.586;2023-03-14T13:43:30;7.43;;;1.90;;
14316;SDS011;7242;50.858;6.586;2023-03-14T13:46:35;3.60;;;1.47;;
14316;SDS011;7242;50.858;6.586;2023-03-14T13:49:37;5.13;;;1.50;;
14316;SDS011;7242;50.858;6.586;2023-03-14T13:52:38;6.43;;;1.70;;
14316;SDS011;7242;50.858;6.586;2023-03-14T13:55:39;7.93;;;1.77;;
14316;SDS011;7242;50.858;6.586;2023-03-14T13:58:40;6.27;;;2.00;;
14316;SDS011;7242;50.858;6.586;2023-03-14T14:01:41;3.87;;;1.60;;
14316;SDS011;7242;50.858;6.586;2023-03-14T14:04:42;6.53;;;2.10;;
14316;SDS011;7242;50.858;6.586;2023-03-14T14:07:43;6.37;;;1.80;;
14316;SDS011;7242;50.858;6.586;2023-03-14T14:10:44;6.17;;;2.10;;
14316;SDS011;7242;50.858;6.586;2023-03-14T14:13:48;7.87;;;1.90;;
14316;SDS011;7242;50.858;6.586;2023-03-14T14:16:50;6.27;;;1.77;;
14316;SDS011;7242;50.858;6.586;2023-03-14T14:19:51;5.43;;;1.60;;
14316;SDS011;7242;50.858;6.586;2023-03-14T14:22:53;4.97;;;1.40;;
14316;SDS011;7242;50.858;6.586;2023-03-14T14:25:55;5.27;;;1.60;;
14316;SDS011;7242;50.858;6.586;2023-03-14T14:29:01;7.73;;;1.80;;
14316;SDS011;7242;50.858;6.586;2023-03-14T14:35:10;5.70;;;1.57;;
14316;SDS011;7242;50.858;6.586;2023-03-14T14:38:21;7.77;;;1.70;;
14316;SDS011;7242;50.858;6.586;2023-03-14T14:41:25;7.53;;;2.03;;
14316;SDS011;7242;50.858;6.586;2023-03-14T14:44:37;8.20;;;2.17;;
14316;SDS011;7242;50.858;6.586;2023-03-14T14:47:47;10.23;;;2.47;;
14316;SDS011;7242;50.858;6.586;2023-03-14T14:51:01;12.63;;;2.67;;
14316;SDS011;7242;50.858;6.586;2023-03-14T14:54:05;10.57;;;2.83;;
14316;SDS011;7242;50.858;6.586;2023-03-14T15:00:55;16.47;;;3.27;;
14316;SDS011;7242;50.858;6.586;2023-03-14T15:04:09;13.40;;;3.40;;
14316;SDS011;7242;50.858;6.586;2023-03-14T15:07:13;13.27;;;3.87;;
14316;SDS011;7242;50.858;6.586;2023-03-14T15:10:18;9.17;;;3.03;;
14316;SDS011;7242;50.858;6.586;2023-03-14T15:13:20;9.90;;;2.80;;
14316;SDS011;7242;50.858;6.586;2023-03-14T15:16:22;11.87;;;2.97;;
14316;SDS011;7242;50.858;6.586;2023-03-14T15:19:26;9.80;;;2.57;;
14316;SDS011;7242;50.858;6.586;2023-03-14T15:22:27;12.77;;;3.33;;
14316;SDS011;7242;50.858;6.586;2023-03-14T15:25:27;11.77;;;3.10;;
14316;SDS011;7242;50.858;6.586;2023-03-14T15:28:28;12.00;;;2.60;;
14316;SDS011;7242;50.858;6.586;2023-03-14T15:31:29;8.33;;;2.40;;
14316;SDS011;7242;50.858;6.586;2023-03-14T15:34:30;9.17;;;2.70;;
14316;SDS011;7242;50.858;6.586;2023-03-14T15:37:31;10.57;;;2.57;;
14316;SDS011;7242;50.858;6.586;2023-03-14T15:40:32;14.47;;;3.20;;
14316;SDS011;7242;50.858;6.586;2023-03-14T15:43:32;11.10;;;2.77;;
14316;SDS011;7242;50.858;6.586;2023-03-14T15:46:33;15.40;;;3.37;;
14316;SDS011;7242;50.858;6.586;2023-03-14T15:49:34;16.13;;;3.20;;
14316;SDS011;7242;50.858;6.586;2023-03-14T15:52:35;15.17;;;2.90;;
14316;SDS011;7242;50.858;6.586;2023-03-14T15:55:36;13.00;;;2.80;;
14316;SDS011;7242;50.858;6.586;2023-03-14T15:58:37;15.50;;;3.00;;
14316;SDS011;7242;50.858;6.586;2023-03-14T16:01:40;8.27;;;2.73;;
14316;SDS011;7242;50.858;6.586;2023-03-14T16:04:40;15.43;;;3.30;;
14316;SDS011;7242;50.858;6.586;2023-03-14T16:07:41;12.67;;;2.87;;
14316;SDS011;7242;50.858;6.586;2023-03-14T16:10:43;10.20;;;2.70;;
14316;SDS011;7242;50.858;6.586;2023-03-14T16:13:45;14.37;;;3.60;;
14316;SDS011;7242;50.858;6.586;2023-03-14T16:16:46;13.00;;;3.00;;
14316;SDS011;7242;50.858;6.586;2023-03-14T16:19:47;14.07;;;3.20;;
14316;SDS011;7242;50.858;6.586;2023-03-14T16:22:48;11.53;;;3.60;;
14316;SDS011;7242;50.858;6.586;2023-03-14T16:25:49;14.30;;;2.47;;
14316;SDS011;7242;50.858;6.586;2023-03-14T16:28:50;13.77;;;3.50;;
14316;SDS011;7242;50.858;6.586;2023-03-14T16:31:52;13.60;;;3.37;;
14316;SDS011;7242;50.858;6.586;2023-03-14T16:34:54;13.97;;;3.53;;
14316;SDS011;7242;50.858;6.586;2023-03-14T16:37:58;13.43;;;3.40;;
14316;SDS011;7242;50.858;6.586;2023-03-14T16:41:01;15.53;;;3.77;;
14316;SDS011;7242;50.858;6.586;2023-03-14T16:44:03;11.17;;;3.20;;
14316;SDS011;7242;50.858;6.586;2023-03-14T16:47:04;12.10;;;3.43;;
14316;SDS011;7242;50.858;6.586;2023-03-14T16:50:05;10.87;;;3.10;;
14316;SDS011;7242;50.858;6.586;2023-03-14T16:53:06;13.57;;;3.40;;
14316;SDS011;7242;50.858;6.586;2023-03-14T16:56:08;8.37;;;2.40;;
14316;SDS011;7242;50.858;6.586;2023-03-14T16:59:08;10.03;;;2.70;;
14316;SDS011;7242;50.858;6.586;2023-03-14T17:02:09;6.07;;;1.97;;
14316;SDS011;7242;50.858;6.586;2023-03-14T17:05:11;11.67;;;2.27;;
14316;SDS011;7242;50.858;6.586;2023-03-14T17:08:11;8.63;;;2.37;;
14316;SDS011;7242;50.858;6.586;2023-03-14T17:11:12;7.23;;;2.10;;
14316;SDS011;7242;50.858;6.586;2023-03-14T17:14:13;8.90;;;2.13;;
14316;SDS011;7242;50.858;6.586;2023-03-14T17:17:14;7.23;;;2.47;;
14316;SDS011;7242;50.858;6.586;2023-03-14T17:20:16;9.20;;;2.23;;
14316;SDS011;7242;50.858;6.586;2023-03-14T17:23:17;10.43;;;2.10;;
14316;SDS011;7242;50.858;6.586;2023-03-14T17:26:18;12.80;;;2.80;;
14316;SDS011;7242;50.858;6.586;2023-03-14T17:29:19;7.60;;;2.50;;
14316;SDS011;7242;50.858;6.586;2023-03-14T17:32:20;8.83;;;1.90;;
14316;SDS011;7242;50.858;6.586;2023-03-14T17:35:20;11.03;;;2.10;;
14316;SDS011;7242;50.858;6.586;2023-03-14T17:38:21;8.17;;;1.90;;
14316;SDS011;7242;50.858;6.586;2023-03-14T17:41:23;9.43;;;1.83;;
14316;SDS011;7242;50.858;6.586;2023-03-14T17:44:23;5.93;;;1.83;;
14316;SDS011;7242;50.858;6.586;2023-03-14T17:47:24;9.73;;;2.50;;
14316;SDS011;7242;50.858;6.586;2023-03-14T17:50:25;6.63;;;2.00;;
14316;SDS011;7242;50.858;6.586;2023-03-14T17:53:26;6.47;;;2.00;;
14316;SDS011;7242;50.858;6.586;2023-03-14T17:56:27;7.77;;;2.20;;
14316;SDS011;7242;50.858;6.586;2023-03-14T17:59:28;7.27;;;1.90;;
14316;SDS011;7242;50.858;6.586;2023-03-14T18:02:28;7.23;;;1.80;;
14316;SDS011;7242;50.858;6.586;2023-03-14T18:05:29;3.83;;;1.70;;
14316;SDS011;7242;50.858;6.586;2023-03-14T18:08:30;6.97;;;1.70;;
14316;SDS011;7242;50.858;6.586;2023-03-14T18:11:31;9.40;;;1.80;;
14316;SDS011;7242;50.858;6.586;2023-03-14T18:14:33;7.10;;;1.70;;
14316;SDS011;7242;50.858;6.586;2023-03-14T18:17:35;6.73;;;1.60;;
14316;SDS011;7242;50.858;6.586;2023-03-14T18:20:35;4.43;;;1.70;;
14316;SDS011;7242;50.858;6.586;2023-03-14T18:23:36;9.27;;;1.70;;
14316;SDS011;7242;50.858;6.586;2023-03-14T18:26:38;7.23;;;1.70;;
14316;SDS011;7242;50.858;6.586;2023-03-14T18:29:39;8.87;;;1.83;;
14316;SDS011;7242;50.858;6.586;2023-03-14T18:32:41;8.53;;;1.90;;
14316;SDS011;7242;50.858;6.586;2023-03-14T18:35:42;5.50;;;1.60;;
14316;SDS011;7242;50.858;6.586;2023-03-14T18:38:43;7.57;;;1.50;;
14316;SDS011;7242;50.858;6.586;2023-03-14T18:41:45;6.67;;;2.00;;
14316;SDS011;7242;50.858;6.586;2023-03-14T18:44:45;6.23;;;1.83;;
14316;SDS011;7242;50.858;6.586;2023-03-14T18:47:46;9.13;;;2.10;;
14316;SDS011;7242;50.858;6.586;2023-03-14T18:50:47;9.33;;;2.70;;
14316;SDS011;7242;50.858;6.586;2023-03-14T18:53:48;9.17;;;2.67;;
14316;SDS011;7242;50.858;6.586;2023-03-14T18:56:48;6.77;;;1.80;;
14316;SDS011;7242;50.858;6.586;2023-03-14T18:59:51;7.07;;;2.00;;
14316;SDS011;7242;50.858;6.586;2023-03-14T19:02:55;7.57;;;2.07;;
14316;SDS011;7242;50.858;6.586;2023-03-14T19:05:56;6.27;;;1.77;;
14316;SDS011;7242;50.858;6.586;2023-03-14T19:08:58;5.60;;;1.47;;
14316;SDS011;7242;50.858;6.586;2023-03-14T19:11:59;7.53;;;2.20;;
14316;SDS011;7242;50.858;6.586;2023-03-14T19:15:00;9.00;;;2.40;;
14316;SDS011;7242;50.858;6.586;2023-03-14T19:18:01;7.00;;;2.00;;
14316;SDS011;7242;50.858;6.586;2023-03-14T19:21:06;8.37;;;2.30;;
14316;SDS011;7242;50.858;6.586;2023-03-14T19:24:09;9.03;;;2.20;;
14316;SDS011;7242;50.858;6.586;2023-03-14T19:27:15;7.97;;;2.30;;
14316;SDS011;7242;50.858;6.586;2023-03-14T19:30:16;9.43;;;2.37;;
14316;SDS011;7242;50.858;6.586;2023-03-14T19:33:17;9.03;;;2.47;;
14316;SDS011;7242;50.858;6.586;2023-03-14T19:39:23;5.77;;;2.07;;
14316;SDS011;7242;50.858;6.586;2023-03-14T19:42:24;9.33;;;2.00;;